createdAt,value
2023-03-06T00:01:18.844Z,100063.38
2023-03-06T00:03:49.744Z,100062.22
2023-03-06T00:06:20.770Z,100065.39
2023-03-06T00:08:51.825Z,100066.02
2023-03-06T00:11:22.799Z,100068.09
2023-03-06T00:13:53.936Z,100068.41
2023-03-06T00:16:25.064Z,100070.30
2023-03-06T00:18:55.984Z,100069.13
2023-03-06T00:21:26.918Z,100070.14
2023-03-06T00:23:57.916Z,100070.16
2023-03-06T00:26:28.754Z,100071.20
2023-03-06T00:28:59.550Z,100071.94
2023-03-06T00:31:30.567Z,100069.83
2023-03-06T00:34:01.440Z,100067.55
2023-03-06T00:36:32.310Z,100065.80
2023-03-06T00:39:03.211Z,100067.26
2023-03-06T00:41:34.144Z,100069.83
2023-03-06T00:44:05.226Z,100072.42
2023-03-06T00:46:36.031Z,100071.48
2023-03-06T00:49:07.037Z,100070.73
2023-03-06T00:51:38.065Z,100073.33
2023-03-06T00:54:09.096Z,100067.36
2023-03-06T00:56:39.840Z,100071.58
2023-03-06T00:59:10.752Z,100067.42
2023-03-06T01:01:41.887Z,100065.54
2023-03-06T01:04:12.726Z,100064.95
2023-03-06T01:06:43.686Z,100062.71
2023-03-06T01:09:14.513Z,100064.59
2023-03-06T01:11:45.705Z,100060.45
2023-03-06T01:14:19.192Z,100061.20
2023-03-06T01:16:50.368Z,100059.27
2023-03-06T01:19:21.279Z,100060.77
2023-03-06T01:21:52.129Z,100052.88
2023-03-06T01:24:24.191Z,100053.86
2023-03-06T01:26:55.074Z,100051.83
2023-03-06T01:29:26.591Z,100050.00
2023-03-06T01:31:57.513Z,100050.45
2023-03-06T01:34:28.466Z,100052.92
2023-03-06T01:36:59.413Z,100054.82
2023-03-06T01:39:31.717Z,100055.33
2023-03-06T01:42:02.533Z,100061.11
2023-03-06T01:44:33.450Z,100061.24
2023-03-06T01:47:04.179Z,100059.65
2023-03-06T01:49:35.619Z,100060.27
2023-03-06T01:52:07.697Z,100058.88
2023-03-06T01:54:39.666Z,100054.79
2023-03-06T01:57:11.614Z,100051.14
2023-03-06T01:59:42.463Z,100050.95
2023-03-06T02:02:13.566Z,100049.84
2023-03-06T02:04:45.050Z,100048.67
2023-03-06T02:07:16.007Z,100050.27
2023-03-06T02:09:46.801Z,100051.48
2023-03-06T02:12:18.966Z,100047.04
2023-03-06T02:14:49.776Z,100050.91
2023-03-06T02:17:21.340Z,100049.73
2023-03-06T02:19:54.192Z,100049.38
2023-03-06T02:22:25.174Z,100050.52
2023-03-06T02:24:56.504Z,100053.61
2023-03-06T02:27:27.390Z,100055.81
2023-03-06T02:29:58.357Z,100051.34
2023-03-06T02:32:29.240Z,100051.59
2023-03-06T02:35:00.069Z,100051.67
2023-03-06T02:37:31.022Z,100054.22
2023-03-06T02:40:03.604Z,100060.95
2023-03-06T02:42:34.358Z,100061.23
2023-03-06T02:45:05.869Z,100063.66
2023-03-06T02:47:36.812Z,100058.33
2023-03-06T02:50:08.217Z,100060.29
2023-03-06T02:52:39.083Z,100065.66
2023-03-06T02:55:10.784Z,100067.99
2023-03-06T02:57:41.846Z,100070.43
2023-03-06T03:00:14.885Z,100067.59
2023-03-06T03:02:45.763Z,100068.45
2023-03-06T03:05:16.772Z,100068.63
2023-03-06T03:07:47.723Z,100067.14
2023-03-06T03:10:18.339Z,100071.86
2023-03-06T03:12:49.276Z,100072.38
2023-03-06T03:15:20.130Z,100074.68
2023-03-06T03:17:51.019Z,100076.73
2023-03-06T03:20:23.192Z,100081.02
2023-03-06T03:22:55.129Z,100077.91
2023-03-06T03:25:26.501Z,100075.27
2023-03-06T03:27:57.388Z,100075.39
2023-03-06T03:30:28.302Z,100071.93
2023-03-06T03:32:59.136Z,100071.23
2023-03-06T03:35:29.979Z,100083.73
2023-03-06T03:38:01.116Z,100089.98
2023-03-06T03:40:31.973Z,100090.80
2023-03-06T03:43:02.884Z,100092.44
2023-03-06T03:45:33.786Z,100093.00
2023-03-06T03:48:04.679Z,100094.06
2023-03-06T03:50:35.675Z,100093.56
2023-03-06T03:53:06.653Z,100096.08
2023-03-06T03:55:37.713Z,100098.27
2023-03-06T03:58:08.591Z,100099.29
2023-03-06T04:00:39.423Z,100093.84
2023-03-06T04:03:10.331Z,100093.85
2023-03-06T04:05:41.361Z,100092.15
2023-03-06T04:08:12.201Z,100091.97
2023-03-06T04:10:43.170Z,100093.96
2023-03-06T04:13:14.127Z,100095.78
2023-03-06T04:15:44.998Z,100096.63
2023-03-06T04:18:17.148Z,100097.89
2023-03-06T04:20:48.111Z,100099.06
2023-03-06T04:23:19.017Z,100100.08
2023-03-06T04:25:49.826Z,100095.31
2023-03-06T04:28:20.869Z,100096.33
2023-03-06T04:30:51.775Z,100095.83
2023-03-06T04:33:22.612Z,100100.58
2023-03-06T04:35:53.822Z,100099.66
2023-03-06T04:38:24.866Z,100106.77
2023-03-06T04:40:55.769Z,100108.33
2023-03-06T04:43:26.821Z,100109.55
2023-03-06T04:45:57.672Z,100109.52
2023-03-06T04:48:28.597Z,100115.14
2023-03-06T04:50:59.508Z,100121.02
2023-03-06T04:53:30.273Z,100120.34
2023-03-06T04:56:01.206Z,100125.23
2023-03-06T04:58:32.155Z,100130.05
2023-03-06T05:01:03.170Z,100132.21
2023-03-06T05:03:35.032Z,100135.58
2023-03-06T05:06:06.116Z,100138.77
2023-03-06T05:08:37.092Z,100137.37
2023-03-06T05:11:08.090Z,100141.48
2023-03-06T05:13:38.895Z,100146.60
2023-03-06T05:16:10.320Z,100145.06
2023-03-06T05:18:41.078Z,100143.92
2023-03-06T05:21:11.955Z,100146.95
2023-03-06T05:23:42.822Z,100145.85
2023-03-06T05:26:14.354Z,100141.85
2023-03-06T05:28:45.078Z,100144.00
2023-03-06T05:31:15.856Z,100148.69
2023-03-06T05:33:46.598Z,100157.39
2023-03-06T05:36:17.469Z,100174.95
2023-03-06T05:38:48.326Z,100180.71
2023-03-06T05:41:19.188Z,100181.79
2023-03-06T05:43:50.107Z,100176.88
2023-03-06T05:46:21.019Z,100179.13
2023-03-06T05:48:53.275Z,100186.73
2023-03-06T05:51:24.154Z,100192.46
2023-03-06T05:53:55.092Z,100193.00
2023-03-06T05:56:25.996Z,100193.31
2023-03-06T05:58:56.846Z,100196.16
2023-03-06T06:01:28.742Z,100199.62
2023-03-06T06:03:59.564Z,100204.59
2023-03-06T06:06:30.561Z,100207.70
2023-03-06T06:09:01.360Z,100209.28
2023-03-06T06:11:32.311Z,100216.00
2023-03-06T06:14:03.297Z,100228.63
2023-03-06T06:16:34.172Z,100229.37
2023-03-06T06:19:05.161Z,100236.80
2023-03-06T06:21:36.036Z,100242.15
2023-03-06T06:24:07.378Z,100244.80
2023-03-06T06:26:38.306Z,100246.38
2023-03-06T06:29:09.264Z,100241.95
2023-03-06T06:31:40.307Z,100246.32
2023-03-06T06:34:11.548Z,100251.23
2023-03-06T06:36:42.524Z,100251.41
2023-03-06T06:39:15.467Z,100249.45
2023-03-06T06:42:00.053Z,100248.14
2023-03-06T06:44:37.133Z,100249.13
2023-03-06T06:47:26.387Z,100251.61
2023-03-06T06:49:57.880Z,100250.39
2023-03-06T06:52:29.853Z,100249.85
2023-03-06T06:55:00.877Z,100256.61
2023-03-06T06:57:32.100Z,100255.83
2023-03-06T07:00:03.061Z,100257.64
2023-03-06T07:02:33.866Z,100266.64
2023-03-06T07:05:05.664Z,100271.64
2023-03-06T07:07:37.348Z,100277.82
2023-03-06T07:10:09.213Z,100280.61
2023-03-06T07:12:40.056Z,100283.79
2023-03-06T07:15:12.733Z,100283.80
2023-03-06T07:17:43.489Z,100285.45
2023-03-06T07:20:14.488Z,100288.48
2023-03-06T07:22:51.275Z,100290.45
2023-03-06T07:25:22.974Z,100292.05
2023-03-06T07:27:55.311Z,100296.53
2023-03-06T07:30:26.261Z,100300.08
2023-03-06T07:32:57.652Z,100303.64
2023-03-06T07:35:28.851Z,100308.01
2023-03-06T07:37:59.733Z,100310.19
2023-03-06T07:40:30.535Z,100311.42
2023-03-06T07:43:16.863Z,100311.61
2023-03-06T07:45:49.576Z,100311.97
2023-03-06T07:48:20.642Z,100313.86
2023-03-06T07:50:57.871Z,100313.50
2023-03-06T07:53:29.451Z,100316.00
2023-03-06T07:56:00.410Z,100315.20
2023-03-06T07:58:31.220Z,100311.79
2023-03-06T08:01:05.642Z,100314.79
2023-03-06T08:03:36.590Z,100318.96
2023-03-06T08:06:08.462Z,100318.86
2023-03-06T08:08:40.704Z,100322.95
2023-03-06T08:11:11.604Z,100321.91
2023-03-06T08:13:42.459Z,100323.80
2023-03-06T08:16:13.347Z,100327.23
2023-03-06T08:18:46.237Z,100327.69
2023-03-06T08:21:18.117Z,100330.48
2023-03-06T08:23:51.629Z,100335.97
2023-03-06T08:26:25.584Z,100339.70
2023-03-06T08:28:57.802Z,100343.86
2023-03-06T08:31:29.953Z,100351.38
2023-03-06T08:34:01.224Z,100358.15
2023-03-06T08:36:32.188Z,100361.77
2023-03-06T08:39:03.028Z,100366.02
2023-03-06T08:41:33.886Z,100362.14
2023-03-06T08:44:04.985Z,100362.71
2023-03-06T08:46:35.995Z,100363.52
2023-03-06T08:49:06.793Z,100360.80
2023-03-06T08:51:37.712Z,100366.50
2023-03-06T08:54:08.669Z,100366.55
2023-03-06T08:56:39.333Z,100365.35
2023-03-06T08:59:12.141Z,100365.17
2023-03-06T09:01:43.229Z,100365.77
2023-03-06T09:04:14.259Z,100365.77
2023-03-06T09:06:45.338Z,100362.91
2023-03-06T09:09:16.142Z,100363.20
2023-03-06T09:11:46.958Z,100365.05
2023-03-06T09:14:17.673Z,100367.58
2023-03-06T09:16:48.505Z,100368.02
2023-03-06T09:19:19.233Z,100371.13
2023-03-06T09:21:50.047Z,100376.15
2023-03-06T09:24:20.823Z,100377.14
2023-03-06T09:26:51.852Z,100380.51
2023-03-06T09:29:22.721Z,100381.89
2023-03-06T09:31:53.457Z,100384.40
2023-03-06T09:34:24.199Z,100384.16
2023-03-06T09:36:57.167Z,100384.77
2023-03-06T09:39:28.613Z,100387.39
2023-03-06T09:41:59.649Z,100388.80
2023-03-06T09:44:31.043Z,100392.05
2023-03-06T09:47:20.433Z,100390.69
2023-03-06T09:49:54.032Z,100398.58
2023-03-06T09:52:30.952Z,100398.48
2023-03-06T09:55:02.614Z,100399.48
2023-03-06T09:57:35.424Z,100402.07
2023-03-06T10:00:07.441Z,100404.68
2023-03-06T10:02:40.489Z,100400.05
2023-03-06T10:05:12.036Z,100399.70
2023-03-06T10:07:47.099Z,100401.23
2023-03-06T10:10:22.433Z,100403.23
2023-03-06T10:12:57.803Z,100401.06
2023-03-06T10:15:29.640Z,100399.55
2023-03-06T10:18:00.413Z,100401.45
2023-03-06T10:20:36.119Z,100398.96
2023-03-06T10:23:15.262Z,100389.55
2023-03-06T10:25:48.016Z,100390.10
2023-03-06T10:28:19.216Z,100391.27
2023-03-06T10:30:52.387Z,100386.63
2023-03-06T10:33:30.888Z,100383.17
2023-03-06T10:36:01.725Z,100381.20
2023-03-06T10:38:38.505Z,100380.75
2023-03-06T10:41:10.229Z,100379.10
2023-03-06T10:43:41.608Z,100369.48
2023-03-06T10:46:12.914Z,100359.30
2023-03-06T10:48:43.810Z,100356.52
2023-03-06T10:51:19.319Z,100348.73
2023-03-06T10:53:52.242Z,100346.94
2023-03-06T10:56:29.426Z,100341.17
2023-03-06T10:59:12.400Z,100343.21
2023-03-06T11:01:44.006Z,100339.84
2023-03-06T11:04:25.612Z,100334.68
2023-03-06T11:07:16.967Z,100331.11
2023-03-06T11:09:59.950Z,100330.44
2023-03-06T11:12:32.443Z,100330.15
2023-03-06T11:15:11.153Z,100324.63
2023-03-06T11:17:49.259Z,100319.92
2023-03-06T11:20:20.908Z,100315.27
2023-03-06T11:22:52.394Z,100314.52
2023-03-06T11:25:23.716Z,100310.43
2023-03-06T11:27:57.108Z,100318.14
2023-03-06T11:30:29.517Z,100312.75
2023-03-06T11:33:00.621Z,100305.38
2023-03-06T11:35:35.362Z,100301.91
2023-03-06T11:38:07.207Z,100292.61
2023-03-06T11:40:44.568Z,100299.58
2023-03-06T11:43:18.732Z,100297.79
2023-03-06T11:45:50.441Z,100295.96
2023-03-06T11:48:23.615Z,100301.46
2023-03-06T11:50:55.051Z,100300.41
2023-03-06T11:53:29.075Z,100291.10
2023-03-06T11:56:01.592Z,100290.59
2023-03-06T11:58:49.678Z,100293.09
2023-03-06T12:01:22.552Z,100292.30
2023-03-06T12:03:59.151Z,100297.81
2023-03-06T12:06:33.145Z,100293.98
2023-03-06T12:09:07.564Z,100287.46
2023-03-06T12:11:39.441Z,100283.00
2023-03-06T12:14:19.701Z,100283.73
2023-03-06T12:16:59.879Z,100281.92
2023-03-06T12:19:34.690Z,100279.85
2023-03-06T12:22:10.410Z,100279.37
2023-03-06T12:24:49.908Z,100273.71
2023-03-06T12:27:24.677Z,100276.13
2023-03-06T12:30:12.725Z,100269.69
2023-03-06T12:32:45.540Z,100266.94
2023-03-06T12:35:23.851Z,100271.59
2023-03-06T12:37:56.915Z,100269.31
2023-03-06T12:40:43.981Z,100267.65
2023-03-06T12:43:23.613Z,100268.22
2023-03-06T12:45:54.389Z,100265.14
2023-03-06T12:48:27.447Z,100261.26
2023-03-06T12:50:58.402Z,100263.77
2023-03-06T12:53:29.967Z,100257.20
2023-03-06T12:56:01.911Z,100254.83
2023-03-06T12:58:43.896Z,100262.11
2023-03-06T13:01:15.586Z,100254.74
2023-03-06T13:03:59.968Z,100253.69
2023-03-06T13:06:39.032Z,100248.55
2023-03-06T13:09:19.436Z,100245.44
2023-03-06T13:12:06.311Z,100244.05
2023-03-06T13:14:54.839Z,100243.08
2023-03-06T13:17:27.307Z,100238.27
2023-03-06T13:20:14.654Z,100234.06
2023-03-06T13:22:45.830Z,100238.64
2023-03-06T13:25:30.008Z,100239.88
2023-03-06T13:28:04.517Z,100235.51
2023-03-06T13:30:45.290Z,100232.10
2023-03-06T13:33:34.438Z,100233.23
2023-03-06T13:36:18.461Z,100225.71
2023-03-06T13:39:02.467Z,100224.61
2023-03-06T13:41:38.527Z,100220.92
2023-03-06T13:44:34.902Z,100221.29
2023-03-06T13:47:06.406Z,100219.25
2023-03-06T13:49:37.541Z,100212.92
2023-03-06T13:52:10.225Z,100214.06
2023-03-06T13:54:45.157Z,100207.40
2023-03-06T13:57:41.778Z,100210.84
2023-03-06T14:00:28.911Z,100204.14
2023-03-06T14:03:06.631Z,100204.42
2023-03-06T14:05:43.641Z,100205.83
2023-03-06T14:08:15.265Z,100204.44
2023-03-06T14:10:46.909Z,100200.04
2023-03-06T14:13:18.927Z,100201.22
2023-03-06T14:15:50.259Z,100198.72
2023-03-06T14:18:23.927Z,100197.15
2023-03-06T14:20:57.049Z,100198.80
2023-03-06T14:23:30.059Z,100195.71
2023-03-06T14:26:02.391Z,100193.66
2023-03-06T14:28:34.220Z,100185.56
2023-03-06T14:31:06.025Z,100185.89
2023-03-06T14:33:38.848Z,100181.08
2023-03-06T14:36:14.598Z,100183.69
2023-03-06T14:38:47.069Z,100185.13
2023-03-06T14:41:24.801Z,100188.16
2023-03-06T14:43:55.668Z,100188.82
2023-03-06T14:46:26.591Z,100190.96
2023-03-06T14:49:00.008Z,100189.77
2023-03-06T14:51:33.510Z,100186.27
2023-03-06T14:54:04.355Z,100183.66
2023-03-06T14:56:35.448Z,100180.42
2023-03-06T14:59:06.441Z,100180.40
2023-03-06T15:01:38.171Z,100178.27
2023-03-06T15:04:13.885Z,100178.45
2023-03-06T15:06:46.649Z,100181.31
2023-03-06T15:09:20.575Z,100176.84
2023-03-06T15:12:00.754Z,100176.23
2023-03-06T15:14:33.154Z,100175.14
2023-03-06T15:17:26.312Z,100178.63
2023-03-06T15:19:58.067Z,100179.25
2023-03-06T15:22:30.973Z,100172.05
2023-03-06T15:28:24.426Z,100174.55
2023-03-06T15:31:08.718Z,100176.74
2023-03-06T15:33:39.571Z,100179.13
2023-03-06T15:36:19.991Z,100177.60
2023-03-06T15:38:50.878Z,100174.14
2023-03-06T15:41:23.938Z,100177.46
2023-03-06T15:43:54.781Z,100179.14
2023-03-06T15:46:25.749Z,100177.84
2023-03-06T15:49:00.642Z,100169.70
2023-03-06T15:51:33.236Z,100165.58
2023-03-06T15:54:11.857Z,100168.67
2023-03-06T15:56:44.648Z,100173.30
2023-03-06T15:59:18.313Z,100173.18
2023-03-06T16:01:49.203Z,100172.33
2023-03-06T16:04:20.241Z,100171.55
2023-03-06T16:06:51.319Z,100173.04
2023-03-06T16:13:00.391Z,100176.02
2023-03-06T16:15:52.929Z,100174.75
2023-03-06T16:18:56.054Z,100178.70
2023-03-06T16:21:28.586Z,100182.48
2023-03-06T16:24:05.518Z,100183.70
2023-03-06T16:26:37.466Z,100186.64
2023-03-06T16:29:11.412Z,100188.27
2023-03-06T16:31:42.743Z,100190.60
2023-03-06T16:37:18.864Z,100193.50
2023-03-06T16:39:54.124Z,100198.43
2023-03-06T16:42:27.883Z,100200.08
2023-03-06T16:44:59.180Z,100196.91
2023-03-06T16:47:30.436Z,100202.34
2023-03-06T16:50:02.575Z,100201.20
2023-03-06T16:52:40.625Z,100201.95
2023-03-06T16:55:17.262Z,100203.69
2023-03-06T17:07:38.048Z,100203.05
2023-03-06T17:10:15.638Z,100202.05
2023-03-06T17:13:07.800Z,100200.23
2023-03-06T17:16:54.101Z,100204.52
2023-03-06T17:19:02.194Z,100205.88
2023-03-06T17:21:39.584Z,100209.74
2023-03-06T17:24:11.070Z,100212.39
2023-03-06T17:26:45.508Z,100211.25
2023-03-06T17:30:23.670Z,100213.52
2023-03-06T17:32:33.682Z,100217.41
2023-03-06T17:35:25.578Z,100216.40
2023-03-06T17:37:57.948Z,100220.14
2023-03-06T17:40:29.872Z,100218.41
2023-03-06T17:43:04.594Z,100220.13
2023-03-06T17:45:38.340Z,100215.40
2023-03-06T17:48:09.318Z,100214.50
2023-03-06T17:50:40.337Z,100218.70
2023-03-06T17:53:11.229Z,100219.02
2023-03-06T17:55:42.377Z,100214.80
2023-03-06T18:01:18.913Z,100217.49
2023-03-06T18:03:50.472Z,100220.30
2023-03-06T18:06:23.000Z,100220.07
2023-03-06T18:08:56.955Z,100220.35
2023-03-06T18:11:28.278Z,100222.45
2023-03-06T18:13:59.546Z,100222.48
2023-03-06T18:16:30.693Z,100219.14
2023-03-06T18:19:01.575Z,100216.33
2023-03-06T18:21:32.362Z,100217.04
2023-03-06T18:24:03.319Z,100214.94
2023-03-06T18:26:34.369Z,100214.74
2023-03-06T18:29:05.622Z,100214.32
2023-03-06T18:31:37.023Z,100216.02
2023-03-06T18:34:08.531Z,100216.80
2023-03-06T18:36:39.533Z,100217.42
2023-03-06T18:39:10.899Z,100214.00
2023-03-06T18:41:41.913Z,100215.43
2023-03-06T18:44:15.506Z,100212.73
2023-03-06T18:46:46.399Z,100214.17
2023-03-06T18:49:19.196Z,100212.79
2023-03-06T18:55:06.022Z,100214.84
2023-03-06T18:57:40.194Z,100216.01
2023-03-06T19:00:14.181Z,100215.66
2023-03-06T19:02:58.671Z,100213.45
2023-03-06T19:05:51.841Z,100213.54
2023-03-06T19:08:37.112Z,100207.93
2023-03-06T19:11:09.923Z,100206.16
2023-03-06T19:13:41.054Z,100205.33
2023-03-06T19:16:12.170Z,100203.95
2023-03-06T19:18:44.790Z,100197.22
2023-03-06T19:21:16.968Z,100199.67
2023-03-06T19:23:48.139Z,100199.79
2023-03-06T19:41:57.284Z,100201.17
2023-03-06T19:44:28.232Z,100198.55
2023-03-06T19:46:59.745Z,100193.33
2023-03-06T19:49:30.663Z,100193.69
2023-03-06T19:52:01.645Z,100197.55
2023-03-06T19:54:32.804Z,100194.31
2023-03-06T19:57:04.320Z,100190.04
2023-03-06T19:59:36.309Z,100187.83
2023-03-06T20:02:23.714Z,100189.73
2023-03-06T20:06:23.048Z,100189.48
2023-03-06T20:08:48.289Z,100191.26
2023-03-06T20:11:20.775Z,100193.41
2023-03-06T20:13:54.073Z,100197.86
2023-03-06T20:16:28.467Z,100196.83
2023-03-06T20:19:01.235Z,100195.77
2023-03-06T20:21:34.189Z,100194.71
2023-03-06T20:24:06.336Z,100188.62
2023-03-06T20:26:38.666Z,100186.94
2023-03-06T20:29:09.984Z,100183.09
2023-03-06T20:31:57.217Z,100185.09
2023-03-06T20:34:28.422Z,100187.53
2023-03-06T20:36:59.191Z,100191.81
2023-03-06T20:39:29.929Z,100187.54
2023-03-06T20:42:00.883Z,100191.63
2023-03-06T20:44:32.002Z,100194.31
2023-03-06T20:47:02.914Z,100195.84
2023-03-06T20:49:35.286Z,100194.02
2023-03-06T20:52:18.832Z,100188.81
2023-03-06T21:00:51.077Z,100177.73
2023-03-06T21:03:22.497Z,100180.75
2023-03-06T21:05:53.559Z,100184.75
2023-03-06T21:08:26.631Z,100179.47
2023-03-06T21:10:58.388Z,100186.61
2023-03-06T21:13:30.136Z,100183.09
2023-03-06T21:16:00.910Z,100187.30
2023-03-06T21:18:32.251Z,100189.96
2023-03-06T21:21:04.030Z,100196.96
2023-03-06T21:23:34.973Z,100193.14
2023-03-06T21:26:05.913Z,100185.20
2023-03-06T21:28:36.919Z,100184.13
2023-03-06T21:31:11.964Z,100182.56
2023-03-06T21:33:43.047Z,100184.77
2023-03-06T21:36:16.204Z,100184.26
2023-03-06T21:38:47.990Z,100182.23
2023-03-06T21:41:19.588Z,100175.23
2023-03-06T21:43:50.486Z,100174.45
2023-03-06T21:46:22.913Z,100178.79
2023-03-06T21:48:53.776Z,100172.72
2023-03-06T21:51:25.143Z,100163.48
2023-03-06T21:53:57.293Z,100162.30
2023-03-06T21:56:28.661Z,100163.08
2023-03-06T21:58:59.624Z,100165.67
2023-03-06T22:01:30.557Z,100161.63
2023-03-06T22:04:01.530Z,100164.69
2023-03-06T22:06:32.651Z,100167.09
2023-03-06T22:09:04.428Z,100175.65
2023-03-06T22:11:37.271Z,100177.21
2023-03-06T22:14:09.236Z,100170.77
2023-03-06T22:16:40.388Z,100169.77
2023-03-06T22:19:18.524Z,100165.11
2023-03-06T22:21:49.456Z,100162.90
2023-03-06T22:24:23.046Z,100153.13
2023-03-06T22:26:54.839Z,100149.84
2023-03-06T22:29:25.883Z,100148.42
2023-03-06T22:31:57.157Z,100150.72
2023-03-06T22:34:28.079Z,100144.81
2023-03-06T22:36:58.976Z,100138.48
2023-03-06T22:39:29.886Z,100143.83
2023-03-06T22:42:00.665Z,100150.36
2023-03-06T22:44:31.577Z,100144.35
2023-03-06T22:47:02.395Z,100138.08
2023-03-06T22:49:33.863Z,100140.58
2023-03-06T22:52:04.679Z,100134.44
2023-03-06T22:54:35.600Z,100129.18
2023-03-06T22:57:06.463Z,100116.98
2023-03-06T22:59:39.944Z,100112.36
2023-03-06T23:02:13.969Z,100108.30
2023-03-06T23:04:45.086Z,100099.95
2023-03-06T23:07:15.828Z,100097.41
2023-03-06T23:09:46.679Z,100096.83
2023-03-06T23:12:17.496Z,100102.84
2023-03-06T23:14:51.237Z,100107.05
2023-03-06T23:17:22.119Z,100110.21
2023-03-06T23:19:53.397Z,100107.60
2023-03-06T23:22:24.405Z,100109.11
2023-03-06T23:24:55.198Z,100105.95
2023-03-06T23:27:26.090Z,100106.79
2023-03-06T23:29:59.201Z,100105.71
2023-03-06T23:32:30.344Z,100108.96
2023-03-06T23:35:01.175Z,100109.21
2023-03-06T23:37:32.049Z,100108.54
2023-03-06T23:40:02.970Z,100107.11
2023-03-06T23:42:33.969Z,100101.55
2023-03-06T23:45:05.390Z,100089.70
2023-03-06T23:47:38.424Z,100082.42
2023-03-06T23:50:09.928Z,100079.39
2023-03-06T23:52:40.791Z,100073.55
2023-03-06T23:55:11.827Z,100069.80
2023-03-06T23:57:42.672Z,100066.04
